Aviation Digital Data Service (ADDS)

Output produced by METARs form (1820 UTC 29 January 2015)
found at http://aviationweather.gov/adds/metars/
 
KISP 291740Z 2918/3018 VRB05KT P6SM BKN120 
     FM300000 VRB05KT P6SM SCT030 OVC080 
     FM300400 18006KT 2SM -SN SCT025 OVC050 
     FM300600 19008KT 2SM -SN OVC015 
     FM301300 23009KT 4SM -SN OVC015 
     FM301400 27010KT 4SM -SN OVC015 
     FM301600 30013G21KT P6SM VCSH SCT015 BKN030